createdAt,value
2017-08-02T00:00:32.526Z,19.30
2017-08-02T00:03:00.733Z,19.20
2017-08-02T00:05:28.916Z,19.20
2017-08-02T00:07:57.084Z,19.10
2017-08-02T00:10:25.280Z,19.10
2017-08-02T00:12:53.457Z,19.10
2017-08-02T00:15:21.624Z,19.10
2017-08-02T00:17:49.827Z,19.10
2017-08-02T00:20:18.002Z,19.00
2017-08-02T00:22:46.169Z,19.00
2017-08-02T00:25:14.369Z,19.00
2017-08-02T00:27:43.308Z,18.90
2017-08-02T00:30:11.481Z,18.90
2017-08-02T00:32:39.684Z,18.90
2017-08-02T00:35:07.857Z,18.90
2017-08-02T00:37:36.026Z,18.80
2017-08-02T00:40:04.235Z,18.80
2017-08-02T00:42:33.174Z,18.80
2017-08-02T00:45:01.347Z,18.80
2017-08-02T00:47:29.549Z,18.80
2017-08-02T00:49:57.725Z,18.80
2017-08-02T00:52:25.896Z,18.70
2017-08-02T00:54:54.140Z,18.80
2017-08-02T00:57:22.314Z,18.80
2017-08-02T00:59:50.493Z,18.70
2017-08-02T01:02:18.688Z,18.70
2017-08-02T01:04:46.856Z,18.60
2017-08-02T01:07:15.022Z,18.60
2017-08-02T01:09:43.224Z,18.70
2017-08-02T01:12:11.404Z,18.60
2017-08-02T01:14:39.573Z,18.60
2017-08-02T01:17:07.781Z,18.70
2017-08-02T01:19:36.725Z,18.70
2017-08-02T01:22:04.890Z,18.60
2017-08-02T01:24:33.088Z,18.70
2017-08-02T01:27:01.268Z,18.80
2017-08-02T01:29:29.437Z,18.80
2017-08-02T01:31:57.636Z,18.70
2017-08-02T01:34:26.582Z,18.70
2017-08-02T01:36:54.756Z,18.70
2017-08-02T01:39:23.035Z,18.70
2017-08-02T01:41:51.200Z,18.80
2017-08-02T01:44:19.373Z,18.80
2017-08-02T01:46:47.573Z,18.80
2017-08-02T01:49:15.748Z,18.70
2017-08-02T01:51:43.914Z,18.60
2017-08-02T01:54:12.121Z,18.60
2017-08-02T01:56:40.285Z,18.60
2017-08-02T01:59:08.461Z,18.60
2017-08-02T02:01:36.666Z,18.60
2017-08-02T02:04:05.604Z,18.60
2017-08-02T02:06:33.781Z,18.60
2017-08-02T02:09:01.978Z,18.60
2017-08-02T02:11:30.149Z,18.50
2017-08-02T02:13:58.323Z,18.50
2017-08-02T02:16:26.523Z,18.50
2017-08-02T02:18:55.463Z,18.30
2017-08-02T02:21:23.629Z,18.30
2017-08-02T02:23:52.144Z,18.30
2017-08-02T02:26:20.317Z,18.30
2017-08-02T02:28:48.493Z,18.40
2017-08-02T02:31:16.687Z,18.40
2017-08-02T02:33:44.866Z,18.40
2017-08-02T02:36:13.800Z,18.40
2017-08-02T02:38:42.004Z,18.40
2017-08-02T02:41:10.174Z,18.40
2017-08-02T02:43:38.321Z,18.40
2017-08-02T02:46:06.508Z,18.30
2017-08-02T02:48:34.669Z,18.30
2017-08-02T02:51:02.818Z,18.30
2017-08-02T02:53:31.775Z,18.30
2017-08-02T02:55:59.941Z,18.30
2017-08-02T02:58:28.099Z,18.30
2017-08-02T03:00:56.297Z,18.30
2017-08-02T03:03:24.460Z,18.40
2017-08-02T03:05:54.246Z,18.30
2017-08-02T03:08:22.426Z,18.30
2017-08-02T03:10:50.578Z,18.30
2017-08-02T03:13:18.749Z,18.40
2017-08-02T03:15:47.690Z,18.40
2017-08-02T03:18:15.839Z,18.40
2017-08-02T03:20:43.986Z,18.40
2017-08-02T03:23:12.934Z,18.40
2017-08-02T03:25:41.111Z,18.40
2017-08-02T03:28:09.277Z,18.40
2017-08-02T03:30:37.479Z,18.40
2017-08-02T03:33:05.652Z,18.40
2017-08-02T03:35:33.803Z,18.40
2017-08-02T03:38:01.987Z,18.50
2017-08-02T03:40:30.134Z,18.50
2017-08-02T03:42:59.261Z,18.50
2017-08-02T03:45:27.457Z,18.50
2017-08-02T03:47:55.626Z,18.50
2017-08-02T03:50:23.821Z,18.50
2017-08-02T03:52:52.001Z,18.50
2017-08-02T03:55:20.174Z,18.50
2017-08-02T03:57:48.329Z,18.50
2017-08-02T04:00:16.549Z,18.50
2017-08-02T04:02:44.698Z,18.50
2017-08-02T04:05:12.874Z,18.50
2017-08-02T04:07:41.046Z,18.50
2017-08-02T04:10:09.222Z,18.50
2017-08-02T04:12:37.373Z,18.40
2017-08-02T04:15:05.574Z,18.40
2017-08-02T04:17:33.745Z,18.40
2017-08-02T04:20:01.915Z,18.40
2017-08-02T04:22:30.089Z,18.40
2017-08-02T04:24:58.246Z,18.30
2017-08-02T04:27:26.412Z,18.30
2017-08-02T04:29:54.897Z,18.30
2017-08-02T04:32:23.066Z,18.40
2017-08-02T04:34:51.210Z,18.30
2017-08-02T04:37:20.170Z,18.00
2017-08-02T04:39:48.353Z,18.00
2017-08-02T04:42:16.505Z,18.00
2017-08-02T04:44:44.704Z,18.00
2017-08-02T04:47:12.864Z,18.00
2017-08-02T04:49:41.039Z,18.10
2017-08-02T04:52:09.223Z,18.10
2017-08-02T04:54:37.402Z,18.10
2017-08-02T04:57:05.554Z,18.10
2017-08-02T04:59:34.157Z,18.00
2017-08-02T05:02:02.327Z,18.00
2017-08-02T05:04:30.478Z,18.00
2017-08-02T05:06:58.678Z,18.10
2017-08-02T05:09:26.829Z,18.10
2017-08-02T05:11:54.977Z,18.20
2017-08-02T05:14:23.155Z,18.30
2017-08-02T05:16:51.328Z,18.30
2017-08-02T05:19:19.479Z,18.40
2017-08-02T05:21:48.427Z,18.40
2017-08-02T05:24:16.579Z,18.30
2017-08-02T05:26:44.734Z,18.40
2017-08-02T05:29:12.940Z,18.40
2017-08-02T05:31:41.093Z,18.40
2017-08-02T05:34:09.257Z,18.40
2017-08-02T05:36:37.439Z,18.40
2017-08-02T05:39:05.586Z,18.30
2017-08-02T05:41:34.504Z,18.30
2017-08-02T05:44:02.704Z,18.20
2017-08-02T05:46:30.868Z,18.40
2017-08-02T05:48:59.021Z,18.50
2017-08-02T05:51:27.206Z,18.50
2017-08-02T05:53:55.381Z,18.50
2017-08-02T05:56:23.530Z,18.70
2017-08-02T05:58:52.074Z,18.80
2017-08-02T06:01:20.250Z,18.80
2017-08-02T06:03:48.421Z,18.90
2017-08-02T06:06:16.621Z,18.80
2017-08-02T06:08:44.792Z,18.90
2017-08-02T06:11:12.954Z,19.10
2017-08-02T06:13:41.167Z,19.20
2017-08-02T06:16:09.314Z,19.30
2017-08-02T06:18:37.490Z,19.50
2017-08-02T06:21:05.670Z,19.60
2017-08-02T06:23:33.821Z,19.80
2017-08-02T06:26:01.977Z,20.10
2017-08-02T06:28:30.160Z,20.30
2017-08-02T06:30:58.332Z,20.30
2017-08-02T06:33:26.496Z,20.20
2017-08-02T06:35:54.714Z,20.10
2017-08-02T06:38:22.868Z,20.20
2017-08-02T06:40:51.040Z,20.40
2017-08-02T06:43:19.221Z,20.50
2017-08-02T06:45:47.365Z,20.60
2017-08-02T06:48:15.533Z,20.70
2017-08-02T06:50:43.704Z,20.80
2017-08-02T06:53:12.728Z,20.90
2017-08-02T06:55:40.898Z,21.00
2017-08-02T06:58:09.084Z,21.20
2017-08-02T07:00:37.262Z,21.40
2017-08-02T07:03:05.418Z,21.50
2017-08-02T07:05:33.611Z,21.40
2017-08-02T07:08:01.754Z,21.40
2017-08-02T07:10:29.929Z,21.60
2017-08-02T07:12:58.142Z,21.50
2017-08-02T07:15:26.317Z,21.50
2017-08-02T07:17:54.470Z,21.50
2017-08-02T07:20:22.646Z,21.40
2017-08-02T07:22:50.794Z,21.30
2017-08-02T07:25:18.965Z,21.30
2017-08-02T07:27:47.143Z,21.40
2017-08-02T07:30:15.316Z,21.40
2017-08-02T07:32:43.462Z,21.50
2017-08-02T07:35:12.428Z,22.00
2017-08-02T07:37:40.600Z,22.00
2017-08-02T07:40:08.763Z,22.30
2017-08-02T07:42:36.957Z,22.60
2017-08-02T07:45:05.123Z,22.80
2017-08-02T07:47:33.275Z,23.30
2017-08-02T07:50:01.449Z,23.70
2017-08-02T07:52:29.599Z,24.00
2017-08-02T07:54:57.747Z,24.00
2017-08-02T07:57:26.701Z,24.00
2017-08-02T07:59:54.846Z,24.00
2017-08-02T08:02:22.995Z,23.90
2017-08-02T08:04:51.957Z,24.30
2017-08-02T08:07:20.126Z,24.30
2017-08-02T08:09:48.289Z,24.60
2017-08-02T08:12:16.487Z,24.50
2017-08-02T08:14:44.643Z,24.80
2017-08-02T08:17:12.806Z,25.20
2017-08-02T08:19:41.018Z,25.60
2017-08-02T08:22:09.167Z,26.20
2017-08-02T08:24:37.328Z,26.50
2017-08-02T08:27:05.524Z,27.30
2017-08-02T08:29:33.694Z,28.50
2017-08-02T08:32:01.862Z,29.40
2017-08-02T08:34:30.046Z,30.30
2017-08-02T08:36:58.211Z,30.90
2017-08-02T08:39:26.367Z,31.50
2017-08-02T08:41:54.571Z,31.80
2017-08-02T08:44:22.742Z,31.70
2017-08-02T08:46:50.906Z,32.10
2017-08-02T08:49:19.102Z,32.90
2017-08-02T08:51:47.248Z,32.80
2017-08-02T08:54:15.402Z,32.80
2017-08-02T08:56:43.575Z,32.80
2017-08-02T08:59:11.723Z,33.00
2017-08-02T09:01:39.872Z,32.70
2017-08-02T09:04:08.046Z,32.50
2017-08-02T09:06:36.194Z,32.60
2017-08-02T09:09:04.343Z,33.40
2017-08-02T09:11:32.544Z,33.80
2017-08-02T09:14:00.698Z,33.00
2017-08-02T09:16:28.846Z,32.30
2017-08-02T09:18:57.791Z,31.80
2017-08-02T09:21:25.980Z,31.80
2017-08-02T09:23:54.159Z,32.40
2017-08-02T09:26:22.354Z,32.60
2017-08-02T09:28:51.274Z,31.60
2017-08-02T09:31:19.423Z,31.50
2017-08-02T09:33:47.618Z,30.30
2017-08-02T09:36:15.792Z,29.10
2017-08-02T09:38:43.938Z,28.50
2017-08-02T09:41:12.132Z,27.60
2017-08-02T09:43:40.285Z,26.70
2017-08-02T09:46:08.457Z,26.20
2017-08-02T09:48:36.654Z,26.20
2017-08-02T09:51:05.585Z,25.80
2017-08-02T09:53:33.756Z,25.70
2017-08-02T09:56:01.936Z,25.50
2017-08-02T09:58:30.080Z,25.20
2017-08-02T10:00:58.222Z,25.10
2017-08-02T10:03:26.417Z,25.20
2017-08-02T10:05:55.494Z,24.80
2017-08-02T10:08:23.657Z,24.80
2017-08-02T10:10:51.870Z,24.70
2017-08-02T10:13:20.040Z,24.80
2017-08-02T10:15:48.970Z,24.70
2017-08-02T10:18:17.143Z,24.60
2017-08-02T10:20:45.295Z,24.60
2017-08-02T10:23:13.466Z,24.50
2017-08-02T10:25:41.639Z,24.20
2017-08-02T10:28:09.804Z,24.00
2017-08-02T10:30:38.719Z,24.60
2017-08-02T10:33:06.894Z,24.50
2017-08-02T10:35:35.047Z,24.60
2017-08-02T10:38:03.962Z,24.50
2017-08-02T10:40:32.159Z,24.50
2017-08-02T10:43:00.329Z,24.60
2017-08-02T10:45:28.497Z,24.70
2017-08-02T10:47:56.670Z,24.80
2017-08-02T10:50:24.831Z,25.00
2017-08-02T10:52:52.996Z,24.90
2017-08-02T10:55:21.172Z,24.70
2017-08-02T10:57:49.330Z,24.80
2017-08-02T11:00:18.240Z,25.80
2017-08-02T11:02:46.414Z,25.70
2017-08-02T11:05:14.583Z,26.40
2017-08-02T11:07:42.754Z,27.00
2017-08-02T11:10:10.949Z,27.40
2017-08-02T11:12:39.103Z,27.70
2017-08-02T11:15:07.276Z,27.70
2017-08-02T11:17:35.455Z,27.20
2017-08-02T11:20:03.760Z,27.00
2017-08-02T11:22:31.934Z,27.20
2017-08-02T11:25:00.135Z,28.90
2017-08-02T11:27:28.288Z,29.70
2017-08-02T11:29:56.443Z,29.70
2017-08-02T11:32:24.641Z,29.10
2017-08-02T11:34:52.802Z,29.50
2017-08-02T11:37:20.974Z,30.00
2017-08-02T11:39:49.150Z,31.30
2017-08-02T11:42:17.298Z,31.80
2017-08-02T11:44:45.469Z,31.70
2017-08-02T11:47:13.642Z,31.70
2017-08-02T11:49:41.816Z,32.00
2017-08-02T11:52:09.989Z,32.00
2017-08-02T11:54:38.181Z,31.30
2017-08-02T11:57:06.329Z,30.40
2017-08-02T11:59:35.264Z,30.20
2017-08-02T12:02:03.456Z,30.20
2017-08-02T12:04:31.630Z,29.90
2017-08-02T12:06:59.782Z,29.60
2017-08-02T12:09:27.967Z,29.40
2017-08-02T12:11:56.140Z,29.10
2017-08-02T12:14:24.290Z,29.00
2017-08-02T12:16:52.494Z,28.70
2017-08-02T12:19:20.670Z,28.50
2017-08-02T12:21:48.817Z,28.60
2017-08-02T12:24:17.002Z,28.40
2017-08-02T12:26:45.157Z,28.20
2017-08-02T12:29:13.306Z,28.10
2017-08-02T12:31:41.504Z,28.10
2017-08-02T12:34:09.657Z,27.90
2017-08-02T12:36:37.824Z,27.80
2017-08-02T12:39:06.006Z,27.50
2017-08-02T12:41:34.172Z,27.10
2017-08-02T12:44:02.318Z,26.80
2017-08-02T12:46:30.493Z,26.40
2017-08-02T12:48:58.650Z,26.30
2017-08-02T12:51:26.816Z,26.10
2017-08-02T12:53:55.016Z,25.80
2017-08-02T12:56:23.165Z,25.80
2017-08-02T12:58:51.333Z,25.60
2017-08-02T13:01:19.506Z,25.60
2017-08-02T13:03:47.673Z,25.60
2017-08-02T13:06:16.607Z,25.80
2017-08-02T13:08:44.782Z,25.80
2017-08-02T13:11:12.955Z,25.80
2017-08-02T13:13:41.126Z,25.90
2017-08-02T13:16:09.301Z,26.20
2017-08-02T13:18:37.465Z,26.20
2017-08-02T13:21:05.610Z,26.30
2017-08-02T13:23:34.557Z,26.70
2017-08-02T13:26:02.707Z,26.70
2017-08-02T13:28:30.899Z,26.70
2017-08-02T13:30:59.070Z,26.40
2017-08-02T13:33:27.215Z,26.20
2017-08-02T13:35:55.378Z,26.00
2017-08-02T13:38:24.336Z,25.50
2017-08-02T13:40:52.482Z,25.50
2017-08-02T13:43:20.657Z,25.30
2017-08-02T13:45:48.849Z,25.30
2017-08-02T13:48:17.009Z,25.30
2017-08-02T13:50:45.937Z,25.20
2017-08-02T13:53:14.116Z,25.20
2017-08-02T13:55:42.285Z,25.00
2017-08-02T13:58:10.459Z,25.00
2017-08-02T14:00:38.632Z,24.90
2017-08-02T14:03:06.800Z,24.70
2017-08-02T14:05:34.955Z,24.60
2017-08-02T14:08:03.157Z,24.10
2017-08-02T14:10:31.330Z,23.60
2017-08-02T14:12:59.498Z,23.40
2017-08-02T14:15:27.701Z,23.40
2017-08-02T14:17:56.618Z,23.60
2017-08-02T14:20:24.784Z,23.50
2017-08-02T14:22:52.988Z,23.70
2017-08-02T14:25:21.155Z,23.90
2017-08-02T14:27:49.327Z,24.10
2017-08-02T14:30:17.498Z,24.30
2017-08-02T14:32:45.642Z,24.50
2017-08-02T14:35:13.819Z,24.70
2017-08-02T14:37:42.767Z,25.00
2017-08-02T14:40:10.946Z,25.00
2017-08-02T14:42:39.099Z,25.20
2017-08-02T14:45:07.279Z,25.20
2017-08-02T14:47:35.432Z,25.50
2017-08-02T14:50:03.586Z,25.60
2017-08-02T14:52:32.526Z,25.80
2017-08-02T14:55:00.701Z,25.80
2017-08-02T14:57:28.855Z,25.80
2017-08-02T14:59:57.056Z,25.80
2017-08-02T15:02:25.228Z,25.90
2017-08-02T15:04:53.386Z,26.00
2017-08-02T15:07:21.571Z,26.00
2017-08-02T15:09:49.740Z,25.90
2017-08-02T15:12:17.916Z,25.70
2017-08-02T15:14:46.115Z,25.50
2017-08-02T15:17:14.271Z,25.10
2017-08-02T15:19:42.448Z,25.10
2017-08-02T15:22:10.630Z,25.00
2017-08-02T15:24:38.802Z,24.90
2017-08-02T15:27:06.951Z,25.00
2017-08-02T15:29:35.133Z,25.10
2017-08-02T15:32:03.307Z,25.30
2017-08-02T15:34:31.457Z,25.30
2017-08-02T15:36:59.641Z,25.40
2017-08-02T15:39:27.824Z,25.40
2017-08-02T15:41:56.003Z,25.30
2017-08-02T15:44:24.213Z,25.20
2017-08-02T15:46:52.370Z,24.90
2017-08-02T15:49:20.545Z,24.90
2017-08-02T15:51:48.757Z,25.10
2017-08-02T15:54:17.683Z,25.30
2017-08-02T15:56:45.858Z,25.30
2017-08-02T15:59:14.064Z,25.40
2017-08-02T16:01:42.242Z,25.40
2017-08-02T16:04:10.418Z,25.40
2017-08-02T16:06:38.619Z,25.40
2017-08-02T16:09:07.562Z,25.10
2017-08-02T16:11:35.713Z,25.10
2017-08-02T16:14:03.917Z,24.90
2017-08-02T16:16:32.088Z,24.90
2017-08-02T16:19:00.242Z,24.80
2017-08-02T16:21:28.437Z,24.90
2017-08-02T16:23:56.604Z,24.80
2017-08-02T16:26:24.767Z,24.90
2017-08-02T16:28:52.947Z,24.80
2017-08-02T16:31:21.122Z,24.60
2017-08-02T16:33:49.270Z,24.60
2017-08-02T16:36:18.237Z,24.30
2017-08-02T16:38:46.392Z,24.30
2017-08-02T16:41:14.561Z,24.30
2017-08-02T16:43:42.764Z,24.40
2017-08-02T16:46:10.914Z,24.40
2017-08-02T16:48:39.084Z,24.50
2017-08-02T16:51:07.282Z,24.60
2017-08-02T16:53:35.457Z,24.60
2017-08-02T16:56:03.629Z,24.50
2017-08-02T16:58:31.828Z,24.40
2017-08-02T17:01:00.769Z,24.30
2017-08-02T17:03:28.945Z,24.30
2017-08-02T17:05:57.136Z,24.30
2017-08-02T17:08:25.305Z,24.30
2017-08-02T17:10:53.454Z,24.20
2017-08-02T17:13:21.657Z,24.20
2017-08-02T17:15:49.828Z,24.10
2017-08-02T17:18:17.974Z,24.10
2017-08-02T17:20:46.161Z,24.10
2017-08-02T17:23:14.314Z,24.00
2017-08-02T17:25:42.457Z,24.00
2017-08-02T17:28:10.635Z,24.00
2017-08-02T17:30:39.554Z,23.80
2017-08-02T17:33:07.986Z,23.80
2017-08-02T17:35:36.479Z,23.90
2017-08-02T17:38:04.947Z,23.90
2017-08-02T17:40:33.147Z,24.00
2017-08-02T17:43:02.102Z,23.90
2017-08-02T17:45:30.249Z,24.00
2017-08-02T17:47:58.399Z,24.00
2017-08-02T17:50:27.362Z,24.00
2017-08-02T17:52:55.526Z,24.00
2017-08-02T17:55:23.671Z,23.90
2017-08-02T17:57:51.838Z,24.10
2017-08-02T18:00:20.029Z,24.10
2017-08-02T18:02:48.169Z,24.00
2017-08-02T18:05:16.341Z,23.90
2017-08-02T18:07:45.273Z,23.80
2017-08-02T18:10:13.448Z,23.80
2017-08-02T18:12:41.669Z,23.80
2017-08-02T18:15:10.604Z,23.80
2017-08-02T18:17:38.773Z,23.70
2017-08-02T18:20:06.979Z,23.70
2017-08-02T18:22:35.126Z,23.70
2017-08-02T18:25:03.277Z,23.70
2017-08-02T18:27:32.232Z,23.60
2017-08-02T18:30:00.392Z,23.60
2017-08-02T18:32:28.539Z,23.50
2017-08-02T18:34:56.731Z,23.50
2017-08-02T18:37:24.894Z,23.50
2017-08-02T18:39:53.044Z,23.40
2017-08-02T18:42:21.220Z,23.40
2017-08-02T18:44:49.605Z,23.40
2017-08-02T18:47:17.755Z,23.40
2017-08-02T18:49:45.928Z,23.40
2017-08-02T18:52:14.095Z,23.40
2017-08-02T18:54:42.274Z,23.40
2017-08-02T18:57:11.215Z,23.40
2017-08-02T18:59:39.394Z,23.40
2017-08-02T19:02:07.565Z,23.40
2017-08-02T19:04:35.737Z,23.40
2017-08-02T19:07:03.904Z,23.40
2017-08-02T19:09:32.068Z,23.40
2017-08-02T19:12:00.264Z,23.30
2017-08-02T19:14:28.438Z,23.30
2017-08-02T19:16:56.584Z,23.30
2017-08-02T19:19:24.815Z,23.30
2017-08-02T19:21:52.987Z,23.20
2017-08-02T19:24:21.139Z,23.20
2017-08-02T19:26:49.341Z,23.20
2017-08-02T19:29:17.486Z,23.20
2017-08-02T19:31:45.653Z,23.20
2017-08-02T19:34:13.857Z,23.20
2017-08-02T19:36:42.013Z,23.10
2017-08-02T19:39:10.192Z,23.10
2017-08-02T19:41:38.375Z,23.10
2017-08-02T19:44:06.544Z,23.10
2017-08-02T19:46:34.695Z,23.00
2017-08-02T19:49:02.882Z,23.00
2017-08-02T19:51:31.045Z,23.00
2017-08-02T19:53:59.189Z,22.90
2017-08-02T19:56:28.157Z,23.00
2017-08-02T19:58:56.361Z,22.90
2017-08-02T20:01:24.541Z,22.90
2017-08-02T20:03:53.504Z,23.00
2017-08-02T20:06:21.663Z,22.90
2017-08-02T20:08:49.825Z,22.90
2017-08-02T20:11:18.002Z,22.90
2017-08-02T20:13:46.155Z,22.90
2017-08-02T20:16:14.330Z,22.80
2017-08-02T20:18:42.524Z,22.80
2017-08-02T20:21:10.689Z,22.70
2017-08-02T20:23:38.842Z,22.70
2017-08-02T20:26:07.042Z,22.70
2017-08-02T20:28:35.199Z,22.70
2017-08-02T20:31:03.364Z,22.70
2017-08-02T20:33:31.565Z,22.70
2017-08-02T20:35:59.716Z,22.60
2017-08-02T20:38:27.880Z,22.50
2017-08-02T20:40:56.066Z,22.50
2017-08-02T20:43:24.215Z,22.50
2017-08-02T20:45:53.148Z,22.50
2017-08-02T20:48:21.345Z,22.50
2017-08-02T20:50:49.508Z,22.50
2017-08-02T20:53:17.677Z,22.50
2017-08-02T20:55:45.851Z,22.40
2017-08-02T20:58:14.001Z,22.50
2017-08-02T21:00:42.170Z,22.40
2017-08-02T21:03:10.371Z,22.40
2017-08-02T21:05:38.527Z,22.40
2017-08-02T21:08:06.685Z,22.30
2017-08-02T21:10:35.650Z,22.30
2017-08-02T21:13:03.806Z,22.30
2017-08-02T21:15:31.979Z,22.20
2017-08-02T21:18:00.182Z,22.20
2017-08-02T21:20:29.123Z,22.10
2017-08-02T21:22:57.284Z,22.10
2017-08-02T21:25:25.902Z,22.10
2017-08-02T21:27:54.078Z,22.00
2017-08-02T21:30:22.228Z,22.00
2017-08-02T21:32:50.436Z,21.90
2017-08-02T21:35:18.591Z,21.80
2017-08-02T21:37:46.742Z,21.70
2017-08-02T21:40:14.924Z,21.70
2017-08-02T21:42:43.069Z,21.60
2017-08-02T21:45:12.008Z,21.60
2017-08-02T21:47:40.194Z,21.60
2017-08-02T21:50:08.382Z,21.60
2017-08-02T21:52:36.562Z,21.70
2017-08-02T21:55:04.754Z,21.70
2017-08-02T21:57:33.690Z,21.70
2017-08-02T22:00:01.861Z,21.70
2017-08-02T22:02:30.047Z,21.80
2017-08-02T22:04:58.202Z,21.80
2017-08-02T22:07:26.374Z,21.80
2017-08-02T22:09:54.573Z,21.90
2017-08-02T22:12:22.757Z,21.80
2017-08-02T22:14:50.919Z,21.80
2017-08-02T22:17:19.112Z,21.80
2017-08-02T22:19:47.293Z,21.80
2017-08-02T22:22:15.438Z,21.90
2017-08-02T22:24:43.636Z,21.90
2017-08-02T22:27:11.786Z,21.70
2017-08-02T22:29:39.942Z,21.70
2017-08-02T22:32:08.114Z,21.70
2017-08-02T22:34:36.286Z,21.70
2017-08-02T22:37:04.440Z,21.70
2017-08-02T22:39:32.641Z,21.50
2017-08-02T22:42:00.818Z,21.50
2017-08-02T22:44:29.008Z,21.60
2017-08-02T22:46:57.211Z,21.60
2017-08-02T22:49:25.367Z,21.60
2017-08-02T22:51:53.516Z,21.60
2017-08-02T22:54:21.717Z,21.60
2017-08-02T22:56:49.888Z,21.50
2017-08-02T22:59:18.056Z,21.50
2017-08-02T23:01:46.261Z,21.50
2017-08-02T23:04:14.433Z,21.40
2017-08-02T23:06:42.604Z,21.40
2017-08-02T23:09:10.809Z,21.30
2017-08-02T23:11:39.745Z,21.10
2017-08-02T23:14:07.894Z,21.10
2017-08-02T23:16:36.856Z,21.10
2017-08-02T23:19:05.028Z,21.10
2017-08-02T23:21:33.182Z,21.10
2017-08-02T23:24:01.374Z,21.00
2017-08-02T23:26:29.548Z,21.00
2017-08-02T23:28:57.702Z,21.00
2017-08-02T23:31:25.897Z,20.90
2017-08-02T23:33:54.063Z,20.90
2017-08-02T23:36:22.223Z,20.90
2017-08-02T23:38:50.426Z,20.80
2017-08-02T23:41:18.601Z,20.80
2017-08-02T23:43:46.773Z,20.60
2017-08-02T23:46:14.954Z,20.60
2017-08-02T23:48:43.118Z,20.50
2017-08-02T23:51:11.297Z,20.40
2017-08-02T23:53:39.525Z,20.40
2017-08-02T23:56:07.672Z,20.40
2017-08-02T23:58:36.609Z,20.50
